sensor_id;sensor_type;location;lat;lon;timestamp;P1;durP1;ratioP1;P2;durP2;ratioP2
36797;SDS011;22748;8.426;99.512;2022-07-22T03:57:46;15.52;;;3.38;;
36797;SDS011;22748;8.426;99.512;2022-07-22T04:00:17;8.10;;;3.08;;
36797;SDS011;22748;8.426;99.512;2022-07-22T04:02:48;7.25;;;3.10;;
36797;SDS011;22748;8.426;99.512;2022-07-22T04:05:18;6.88;;;3.25;;
36797;SDS011;22748;8.426;99.512;2022-07-22T04:07:49;17.05;;;13.90;;
36797;SDS011;22748;8.426;99.512;2022-07-22T04:10:21;11.18;;;4.78;;
36797;SDS011;22748;8.426;99.512;2022-07-22T04:12:53;8.73;;;4.05;;
36797;SDS011;22748;8.426;99.512;2022-07-22T04:15:24;8.20;;;3.72;;
36797;SDS011;22748;8.426;99.512;2022-07-22T04:17:55;8.98;;;3.63;;
36797;SDS011;22748;8.426;99.512;2022-07-22T04:20:26;10.00;;;3.22;;
36797;SDS011;22748;8.426;99.512;2022-07-22T04:22:57;8.60;;;3.38;;
36797;SDS011;22748;8.426;99.512;2022-07-22T04:25:28;5.35;;;2.83;;
36797;SDS011;22748;8.426;99.512;2022-07-22T04:28:00;5.63;;;2.55;;
36797;SDS011;22748;8.426;99.512;2022-07-22T04:30:32;6.03;;;2.28;;
36797;SDS011;22748;8.426;99.512;2022-07-22T04:33:03;5.65;;;2.53;;
36797;SDS011;22748;8.426;99.512;2022-07-22T04:35:33;5.40;;;3.00;;
36797;SDS011;22748;8.426;99.512;2022-07-22T04:38:05;9.25;;;4.00;;
36797;SDS011;22748;8.426;99.512;2022-07-22T04:40:38;4.55;;;2.38;;
36797;SDS011;22748;8.426;99.512;2022-07-22T04:43:10;8.90;;;3.30;;
36797;SDS011;22748;8.426;99.512;2022-07-22T04:45:41;6.20;;;2.72;;
36797;SDS011;22748;8.426;99.512;2022-07-22T04:48:12;9.43;;;3.17;;
36797;SDS011;22748;8.426;99.512;2022-07-22T04:50:45;6.57;;;3.00;;
36797;SDS011;22748;8.426;99.512;2022-07-22T04:53:15;6.22;;;2.60;;
36797;SDS011;22748;8.426;99.512;2022-07-22T04:55:45;8.10;;;2.42;;
36797;SDS011;22748;8.426;99.512;2022-07-22T04:58:20;5.88;;;2.70;;
36797;SDS011;22748;8.426;99.512;2022-07-22T05:01:04;7.57;;;2.55;;
36797;SDS011;22748;8.426;99.512;2022-07-22T05:03:34;4.68;;;1.95;;
36797;SDS011;22748;8.426;99.512;2022-07-22T05:06:08;4.68;;;2.33;;
36797;SDS011;22748;8.426;99.512;2022-07-22T05:08:39;4.75;;;2.45;;
36797;SDS011;22748;8.426;99.512;2022-07-22T05:11:09;5.68;;;2.33;;
36797;SDS011;22748;8.426;99.512;2022-07-22T05:13:45;4.38;;;2.30;;
36797;SDS011;22748;8.426;99.512;2022-07-22T05:16:16;5.05;;;2.63;;
36797;SDS011;22748;8.426;99.512;2022-07-22T05:18:48;8.80;;;3.10;;
36797;SDS011;22748;8.426;99.512;2022-07-22T05:21:19;5.20;;;2.33;;
36797;SDS011;22748;8.426;99.512;2022-07-22T05:23:50;6.60;;;3.17;;
36797;SDS011;22748;8.426;99.512;2022-07-22T05:26:22;5.32;;;2.60;;
36797;SDS011;22748;8.426;99.512;2022-07-22T05:28:57;9.23;;;3.30;;
36797;SDS011;22748;8.426;99.512;2022-07-22T05:31:27;8.00;;;3.15;;
36797;SDS011;22748;8.426;99.512;2022-07-22T05:33:58;6.97;;;3.00;;
36797;SDS011;22748;8.426;99.512;2022-07-22T05:36:30;5.28;;;2.65;;
36797;SDS011;22748;8.426;99.512;2022-07-22T05:39:01;4.97;;;2.67;;
36797;SDS011;22748;8.426;99.512;2022-07-22T05:44:03;7.80;;;3.10;;
36797;SDS011;22748;8.426;99.512;2022-07-22T05:46:33;5.88;;;2.50;;
36797;SDS011;22748;8.426;99.512;2022-07-22T05:49:06;3.58;;;2.05;;
36797;SDS011;22748;8.426;99.512;2022-07-22T05:51:38;3.25;;;2.08;;
36797;SDS011;22748;8.426;99.512;2022-07-22T05:54:08;3.25;;;1.65;;
36797;SDS011;22748;8.426;99.512;2022-07-22T05:56:38;8.43;;;2.30;;
36797;SDS011;22748;8.426;99.512;2022-07-22T05:59:11;5.80;;;2.13;;
36797;SDS011;22748;8.426;99.512;2022-07-22T06:01:43;6.60;;;2.38;;
36797;SDS011;22748;8.426;99.512;2022-07-22T06:04:14;4.05;;;1.65;;
36797;SDS011;22748;8.426;99.512;2022-07-22T06:06:47;4.22;;;2.40;;
36797;SDS011;22748;8.426;99.512;2022-07-22T06:09:19;4.07;;;2.45;;
36797;SDS011;22748;8.426;99.512;2022-07-22T06:11:48;4.38;;;2.17;;
36797;SDS011;22748;8.426;99.512;2022-07-22T06:14:20;2.28;;;1.60;;
36797;SDS011;22748;8.426;99.512;2022-07-22T06:16:50;2.75;;;1.33;;
36797;SDS011;22748;8.426;99.512;2022-07-22T06:21:52;1.95;;;1.35;;
36797;SDS011;22748;8.426;99.512;2022-07-22T06:24:23;2.30;;;1.10;;
36797;SDS011;22748;8.426;99.512;2022-07-22T06:26:53;3.33;;;1.67;;
36797;SDS011;22748;8.426;99.512;2022-07-22T06:29:26;5.25;;;2.55;;
36797;SDS011;22748;8.426;99.512;2022-07-22T06:31:58;3.72;;;1.88;;
36797;SDS011;22748;8.426;99.512;2022-07-22T06:34:29;6.13;;;1.95;;
36797;SDS011;22748;8.426;99.512;2022-07-22T06:36:59;5.35;;;2.00;;
36797;SDS011;22748;8.426;99.512;2022-07-22T06:39:29;3.03;;;1.27;;
36797;SDS011;22748;8.426;99.512;2022-07-22T06:41:59;7.80;;;2.10;;
36797;SDS011;22748;8.426;99.512;2022-07-22T06:44:33;15.27;;;4.30;;
36797;SDS011;22748;8.426;99.512;2022-07-22T06:47:04;7.20;;;2.30;;
36797;SDS011;22748;8.426;99.512;2022-07-22T06:49:34;7.80;;;2.17;;
36797;SDS011;22748;8.426;99.512;2022-07-22T06:52:04;9.20;;;2.47;;
36797;SDS011;22748;8.426;99.512;2022-07-22T06:54:34;7.40;;;2.00;;
36797;SDS011;22748;8.426;99.512;2022-07-22T06:57:04;7.78;;;2.00;;
36797;SDS011;22748;8.426;99.512;2022-07-22T06:59:37;10.23;;;2.20;;
36797;SDS011;22748;8.426;99.512;2022-07-22T07:02:07;5.28;;;2.60;;
36797;SDS011;22748;8.426;99.512;2022-07-22T07:04:37;5.50;;;2.30;;
36797;SDS011;22748;8.426;99.512;2022-07-22T07:07:07;5.45;;;2.00;;
36797;SDS011;22748;8.426;99.512;2022-07-22T07:09:38;4.18;;;2.10;;
36797;SDS011;22748;8.426;99.512;2022-07-22T07:12:08;5.63;;;2.22;;
36797;SDS011;22748;8.426;99.512;2022-07-22T07:14:39;4.90;;;2.30;;
36797;SDS011;22748;8.426;99.512;2022-07-22T07:19:41;5.82;;;2.05;;
36797;SDS011;22748;8.426;99.512;2022-07-22T07:22:12;3.22;;;1.85;;
36797;SDS011;22748;8.426;99.512;2022-07-22T07:24:42;4.82;;;1.98;;
36797;SDS011;22748;8.426;99.512;2022-07-22T07:27:13;4.38;;;2.15;;
36797;SDS011;22748;8.426;99.512;2022-07-22T07:29:45;4.55;;;1.98;;
36797;SDS011;22748;8.426;99.512;2022-07-22T07:32:15;3.85;;;2.08;;
36797;SDS011;22748;8.426;99.512;2022-07-22T07:34:45;4.30;;;1.90;;
36797;SDS011;22748;8.426;99.512;2022-07-22T07:37:15;4.63;;;1.90;;
36797;SDS011;22748;8.426;99.512;2022-07-22T07:39:46;3.95;;;1.70;;
36797;SDS011;22748;8.426;99.512;2022-07-22T07:42:17;2.83;;;1.90;;
36797;SDS011;22748;8.426;99.512;2022-07-22T07:44:50;2.90;;;1.65;;
36797;SDS011;22748;8.426;99.512;2022-07-22T07:47:21;2.40;;;1.42;;
36797;SDS011;22748;8.426;99.512;2022-07-22T07:49:52;5.25;;;2.47;;
36797;SDS011;22748;8.426;99.512;2022-07-22T07:52:24;4.70;;;2.22;;
36797;SDS011;22748;8.426;99.512;2022-07-22T07:54:55;3.80;;;2.97;;
36797;SDS011;22748;8.426;99.512;2022-07-22T07:57:25;3.70;;;2.03;;
36797;SDS011;22748;8.426;99.512;2022-07-22T07:59:57;3.00;;;2.40;;
36797;SDS011;22748;8.426;99.512;2022-07-22T08:02:29;4.05;;;2.10;;
36797;SDS011;22748;8.426;99.512;2022-07-22T08:05:00;4.20;;;1.95;;
36797;SDS011;22748;8.426;99.512;2022-07-22T08:07:31;2.67;;;1.95;;
36797;SDS011;22748;8.426;99.512;2022-07-22T08:10:02;5.32;;;2.00;;
36797;SDS011;22748;8.426;99.512;2022-07-22T08:12:33;5.70;;;2.40;;
36797;SDS011;22748;8.426;99.512;2022-07-22T08:15:05;3.33;;;2.10;;
36797;SDS011;22748;8.426;99.512;2022-07-22T08:31:36;3.40;;;2.30;;
36797;SDS011;22748;8.426;99.512;2022-07-22T08:34:06;3.20;;;2.20;;
36797;SDS011;22748;8.426;99.512;2022-07-22T08:36:37;2.50;;;2.10;;
36797;SDS011;22748;8.426;99.512;2022-07-22T08:39:11;2.83;;;2.22;;
36797;SDS011;22748;8.426;99.512;2022-07-22T08:41:45;3.10;;;2.50;;
36797;SDS011;22748;8.426;99.512;2022-07-22T08:44:15;3.63;;;2.58;;
36797;SDS011;22748;8.426;99.512;2022-07-22T08:46:48;4.00;;;2.50;;
36797;SDS011;22748;8.426;99.512;2022-07-22T08:49:18;4.60;;;2.90;;
36797;SDS011;22748;8.426;99.512;2022-07-22T08:51:49;4.72;;;3.17;;
36797;SDS011;22748;8.426;99.512;2022-07-22T08:54:19;5.07;;;3.05;;
36797;SDS011;22748;8.426;99.512;2022-07-22T08:56:51;5.47;;;2.57;;
36797;SDS011;22748;8.426;99.512;2022-07-22T08:59:24;4.80;;;2.67;;
36797;SDS011;22748;8.426;99.512;2022-07-22T09:02:03;3.88;;;2.55;;
36797;SDS011;22748;8.426;99.512;2022-07-22T09:04:49;5.27;;;2.60;;
36797;SDS011;22748;8.426;99.512;2022-07-22T09:07:29;9.25;;;2.50;;
36797;SDS011;22748;8.426;99.512;2022-07-22T09:10:06;3.35;;;2.47;;
36797;SDS011;22748;8.426;99.512;2022-07-22T09:12:50;3.47;;;2.42;;
36797;SDS011;22748;8.426;99.512;2022-07-22T09:15:27;5.93;;;2.67;;
36797;SDS011;22748;8.426;99.512;2022-07-22T09:18:04;3.13;;;2.78;;
36797;SDS011;22748;8.426;99.512;2022-07-22T09:20:36;4.07;;;2.60;;
36797;SDS011;22748;8.426;99.512;2022-07-22T09:23:09;3.40;;;2.40;;
36797;SDS011;22748;8.426;99.512;2022-07-22T09:25:41;3.95;;;2.60;;
36797;SDS011;22748;8.426;99.512;2022-07-22T09:28:13;4.45;;;2.25;;
36797;SDS011;22748;8.426;99.512;2022-07-22T09:30:46;3.00;;;2.50;;
36797;SDS011;22748;8.426;99.512;2022-07-22T09:33:20;4.40;;;2.28;;
36797;SDS011;22748;8.426;99.512;2022-07-22T09:35:51;4.85;;;2.50;;
36797;SDS011;22748;8.426;99.512;2022-07-22T09:38:31;3.75;;;2.50;;
36797;SDS011;22748;8.426;99.512;2022-07-22T09:43:34;2.95;;;2.67;;
36797;SDS011;22748;8.426;99.512;2022-07-22T09:46:05;4.18;;;3.28;;
36797;SDS011;22748;8.426;99.512;2022-07-22T09:48:40;8.15;;;3.30;;
36797;SDS011;22748;8.426;99.512;2022-07-22T09:51:10;8.20;;;3.50;;
36797;SDS011;22748;8.426;99.512;2022-07-22T09:53:41;4.15;;;3.05;;
36797;SDS011;22748;8.426;99.512;2022-07-22T09:56:12;7.43;;;3.00;;
36797;SDS011;22748;8.426;99.512;2022-07-22T09:58:44;3.75;;;2.60;;
36797;SDS011;22748;8.426;99.512;2022-07-22T10:01:15;10.82;;;3.33;;
36797;SDS011;22748;8.426;99.512;2022-07-22T10:03:49;8.13;;;2.97;;
36797;SDS011;22748;8.426;99.512;2022-07-22T10:06:23;13.48;;;4.93;;
36797;SDS011;22748;8.426;99.512;2022-07-22T10:08:55;4.45;;;3.10;;
36797;SDS011;22748;8.426;99.512;2022-07-22T10:11:27;4.43;;;3.13;;
36797;SDS011;22748;8.426;99.512;2022-07-22T10:13:59;4.18;;;3.10;;
36797;SDS011;22748;8.426;99.512;2022-07-22T10:16:31;5.25;;;3.20;;
36797;SDS011;22748;8.426;99.512;2022-07-22T10:19:11;7.78;;;3.67;;
36797;SDS011;22748;8.426;99.512;2022-07-22T10:21:47;5.53;;;3.38;;
36797;SDS011;22748;8.426;99.512;2022-07-22T10:24:17;10.80;;;4.82;;
36797;SDS011;22748;8.426;99.512;2022-07-22T10:26:51;5.70;;;3.80;;
36797;SDS011;22748;8.426;99.512;2022-07-22T10:29:27;10.98;;;5.10;;
36797;SDS011;22748;8.426;99.512;2022-07-22T10:38:05;6.47;;;5.05;;
36797;SDS011;22748;8.426;99.512;2022-07-22T10:40:48;5.72;;;4.55;;
36797;SDS011;22748;8.426;99.512;2022-07-22T10:43:23;7.47;;;4.20;;
36797;SDS011;22748;8.426;99.512;2022-07-22T10:45:57;5.93;;;3.80;;
36797;SDS011;22748;8.426;99.512;2022-07-22T10:51:18;6.82;;;3.95;;
36797;SDS011;22748;8.426;99.512;2022-07-22T10:53:56;6.57;;;4.18;;
36797;SDS011;22748;8.426;99.512;2022-07-22T10:56:29;4.78;;;3.88;;
36797;SDS011;22748;8.426;99.512;2022-07-22T10:59:09;5.18;;;4.10;;
36797;SDS011;22748;8.426;99.512;2022-07-22T11:01:43;7.32;;;5.10;;
36797;SDS011;22748;8.426;99.512;2022-07-22T11:04:16;10.05;;;5.18;;
36797;SDS011;22748;8.426;99.512;2022-07-22T11:06:49;6.32;;;4.28;;
36797;SDS011;22748;8.426;99.512;2022-07-22T11:09:30;6.25;;;3.90;;
36797;SDS011;22748;8.426;99.512;2022-07-22T11:12:02;8.40;;;3.80;;
36797;SDS011;22748;8.426;99.512;2022-07-22T11:14:41;10.98;;;3.90;;
36797;SDS011;22748;8.426;99.512;2022-07-22T11:17:13;8.23;;;4.05;;
36797;SDS011;22748;8.426;99.512;2022-07-22T11:22:13;8.05;;;4.75;;
36797;SDS011;22748;8.426;99.512;2022-07-22T11:24:47;11.73;;;5.77;;
36797;SDS011;22748;8.426;99.512;2022-07-22T11:27:18;11.15;;;6.55;;
36797;SDS011;22748;8.426;99.512;2022-07-22T11:32:21;9.27;;;6.75;;
36797;SDS011;22748;8.426;99.512;2022-07-22T11:34:51;16.63;;;6.72;;
36797;SDS011;22748;8.426;99.512;2022-07-22T11:37:21;11.00;;;6.90;;
36797;SDS011;22748;8.426;99.512;2022-07-22T11:40:01;17.33;;;10.98;;
36797;SDS011;22748;8.426;99.512;2022-07-22T11:42:36;11.45;;;8.38;;
36797;SDS011;22748;8.426;99.512;2022-07-22T11:45:08;9.68;;;7.95;;
36797;SDS011;22748;8.426;99.512;2022-07-22T11:47:49;9.38;;;7.15;;
36797;SDS011;22748;8.426;99.512;2022-07-22T11:50:30;9.20;;;7.07;;
36797;SDS011;22748;8.426;99.512;2022-07-22T11:55:35;13.70;;;8.10;;
36797;SDS011;22748;8.426;99.512;2022-07-22T11:58:06;19.85;;;8.77;;
36797;SDS011;22748;8.426;99.512;2022-07-22T12:00:38;12.05;;;9.18;;
36797;SDS011;22748;8.426;99.512;2022-07-22T12:03:10;14.13;;;10.10;;
36797;SDS011;22748;8.426;99.512;2022-07-22T12:05:40;14.10;;;11.30;;
36797;SDS011;22748;8.426;99.512;2022-07-22T12:08:10;22.23;;;14.32;;
36797;SDS011;22748;8.426;99.512;2022-07-22T12:10:42;16.92;;;12.40;;
36797;SDS011;22748;8.426;99.512;2022-07-22T12:13:12;16.48;;;11.65;;
36797;SDS011;22748;8.426;99.512;2022-07-22T12:15:41;15.13;;;9.45;;
36797;SDS011;22748;8.426;99.512;2022-07-22T12:18:20;18.05;;;10.35;;
36797;SDS011;22748;8.426;99.512;2022-07-22T12:20:54;23.15;;;11.93;;
36797;SDS011;22748;8.426;99.512;2022-07-22T12:23:26;19.13;;;11.77;;
36797;SDS011;22748;8.426;99.512;2022-07-22T12:26:00;18.73;;;10.57;;
36797;SDS011;22748;8.426;99.512;2022-07-22T12:28:32;15.10;;;9.65;;
36797;SDS011;22748;8.426;99.512;2022-07-22T12:31:03;28.48;;;13.73;;
36797;SDS011;22748;8.426;99.512;2022-07-22T12:33:35;29.00;;;15.10;;
36797;SDS011;22748;8.426;99.512;2022-07-22T12:36:07;32.47;;;15.43;;
36797;SDS011;22748;8.426;99.512;2022-07-22T12:38:40;25.45;;;15.60;;
36797;SDS011;22748;8.426;99.512;2022-07-22T12:43:58;20.52;;;12.75;;
36797;SDS011;22748;8.426;99.512;2022-07-22T12:46:29;14.65;;;11.20;;
36797;SDS011;22748;8.426;99.512;2022-07-22T12:49:15;18.02;;;11.02;;
36797;SDS011;22748;8.426;99.512;2022-07-22T12:54:38;18.55;;;10.82;;
36797;SDS011;22748;8.426;99.512;2022-07-22T12:57:11;18.67;;;10.80;;
36797;SDS011;22748;8.426;99.512;2022-07-22T12:59:51;13.15;;;10.63;;
36797;SDS011;22748;8.426;99.512;2022-07-22T13:02:32;19.17;;;10.75;;
36797;SDS011;22748;8.426;99.512;2022-07-22T13:05:11;15.95;;;9.85;;
36797;SDS011;22748;8.426;99.512;2022-07-22T13:07:42;14.20;;;9.30;;
36797;SDS011;22748;8.426;99.512;2022-07-22T13:10:14;13.48;;;8.73;;
36797;SDS011;22748;8.426;99.512;2022-07-22T13:12:49;12.65;;;8.38;;
36797;SDS011;22748;8.426;99.512;2022-07-22T13:15:29;12.80;;;8.30;;
36797;SDS011;22748;8.426;99.512;2022-07-22T13:18:07;14.50;;;8.97;;
36797;SDS011;22748;8.426;99.512;2022-07-22T13:20:41;14.63;;;8.52;;
36797;SDS011;22748;8.426;99.512;2022-07-22T13:23:18;14.45;;;8.73;;
36797;SDS011;22748;8.426;99.512;2022-07-22T13:25:55;15.20;;;8.60;;
36797;SDS011;22748;8.426;99.512;2022-07-22T13:28:31;24.13;;;19.33;;
36797;SDS011;22748;8.426;99.512;2022-07-22T13:31:02;19.10;;;15.45;;
36797;SDS011;22748;8.426;99.512;2022-07-22T13:33:33;17.05;;;12.70;;
36797;SDS011;22748;8.426;99.512;2022-07-22T13:36:05;17.45;;;11.70;;
36797;SDS011;22748;8.426;99.512;2022-07-22T13:38:35;14.32;;;10.55;;
36797;SDS011;22748;8.426;99.512;2022-07-22T13:41:06;13.73;;;9.60;;
36797;SDS011;22748;8.426;99.512;2022-07-22T13:43:45;15.10;;;9.70;;
36797;SDS011;22748;8.426;99.512;2022-07-22T13:46:15;13.80;;;9.35;;
36797;SDS011;22748;8.426;99.512;2022-07-22T13:48:45;12.80;;;10.10;;
36797;SDS011;22748;8.426;99.512;2022-07-22T13:51:15;14.30;;;9.67;;
36797;SDS011;22748;8.426;99.512;2022-07-22T13:56:16;12.27;;;8.57;;
36797;SDS011;22748;8.426;99.512;2022-07-22T13:58:49;14.93;;;8.98;;
36797;SDS011;22748;8.426;99.512;2022-07-22T14:01:21;11.32;;;8.45;;
36797;SDS011;22748;8.426;99.512;2022-07-22T14:03:54;12.60;;;8.40;;
36797;SDS011;22748;8.426;99.512;2022-07-22T14:06:27;14.68;;;8.43;;
36797;SDS011;22748;8.426;99.512;2022-07-22T14:08:58;10.20;;;7.93;;
36797;SDS011;22748;8.426;99.512;2022-07-22T14:11:29;10.68;;;8.20;;
36797;SDS011;22748;8.426;99.512;2022-07-22T14:14:03;14.73;;;8.60;;
36797;SDS011;22748;8.426;99.512;2022-07-22T14:16:36;14.18;;;9.40;;
36797;SDS011;22748;8.426;99.512;2022-07-22T14:19:08;14.05;;;9.40;;
36797;SDS011;22748;8.426;99.512;2022-07-22T14:21:41;14.45;;;8.95;;
36797;SDS011;22748;8.426;99.512;2022-07-22T14:24:16;14.10;;;9.63;;
36797;SDS011;22748;8.426;99.512;2022-07-22T14:26:50;16.33;;;9.77;;
36797;SDS011;22748;8.426;99.512;2022-07-22T14:29:26;12.82;;;8.52;;
36797;SDS011;22748;8.426;99.512;2022-07-22T14:31:58;15.43;;;8.85;;
36797;SDS011;22748;8.426;99.512;2022-07-22T14:34:28;13.90;;;8.63;;
36797;SDS011;22748;8.426;99.512;2022-07-22T14:37:00;11.55;;;8.27;;
36797;SDS011;22748;8.426;99.512;2022-07-22T14:39:32;14.82;;;8.07;;
36797;SDS011;22748;8.426;99.512;2022-07-22T14:42:03;11.18;;;7.32;;
36797;SDS011;22748;8.426;99.512;2022-07-22T14:44:36;11.15;;;7.93;;
36797;SDS011;22748;8.426;99.512;2022-07-22T14:47:07;14.23;;;7.97;;
36797;SDS011;22748;8.426;99.512;2022-07-22T14:52:07;11.65;;;7.75;;
36797;SDS011;22748;8.426;99.512;2022-07-22T14:54:38;12.43;;;7.70;;
36797;SDS011;22748;8.426;99.512;2022-07-22T14:57:08;10.80;;;7.85;;
36797;SDS011;22748;8.426;99.512;2022-07-22T14:59:41;13.23;;;8.13;;
36797;SDS011;22748;8.426;99.512;2022-07-22T15:02:12;9.05;;;7.82;;
36797;SDS011;22748;8.426;99.512;2022-07-22T15:07:13;8.80;;;7.47;;
36797;SDS011;22748;8.426;99.512;2022-07-22T15:09:43;10.23;;;7.40;;
36797;SDS011;22748;8.426;99.512;2022-07-22T15:12:13;9.38;;;7.78;;
36797;SDS011;22748;8.426;99.512;2022-07-22T15:14:45;9.98;;;7.72;;
36797;SDS011;22748;8.426;99.512;2022-07-22T15:17:18;9.85;;;7.63;;
36797;SDS011;22748;8.426;99.512;2022-07-22T15:19:49;12.10;;;7.75;;
36797;SDS011;22748;8.426;99.512;2022-07-22T15:22:21;10.45;;;7.68;;
36797;SDS011;22748;8.426;99.512;2022-07-22T15:24:55;9.65;;;7.35;;
36797;SDS011;22748;8.426;99.512;2022-07-22T15:27:26;9.45;;;6.70;;
36797;SDS011;22748;8.426;99.512;2022-07-22T15:29:58;12.85;;;8.10;;
36797;SDS011;22748;8.426;99.512;2022-07-22T15:32:30;9.82;;;6.90;;
36797;SDS011;22748;8.426;99.512;2022-07-22T15:35:01;13.32;;;7.05;;
36797;SDS011;22748;8.426;99.512;2022-07-22T15:37:33;8.43;;;7.20;;
36797;SDS011;22748;8.426;99.512;2022-07-22T15:40:05;14.70;;;7.25;;
36797;SDS011;22748;8.426;99.512;2022-07-22T15:42:39;8.98;;;7.10;;
36797;SDS011;22748;8.426;99.512;2022-07-22T15:45:12;10.30;;;7.65;;
36797;SDS011;22748;8.426;99.512;2022-07-22T15:47:45;10.50;;;6.97;;
36797;SDS011;22748;8.426;99.512;2022-07-22T15:50:21;10.10;;;7.25;;
36797;SDS011;22748;8.426;99.512;2022-07-22T15:52:53;10.05;;;6.63;;
36797;SDS011;22748;8.426;99.512;2022-07-22T15:55:25;9.20;;;6.88;;
36797;SDS011;22748;8.426;99.512;2022-07-22T15:57:57;11.25;;;7.03;;
36797;SDS011;22748;8.426;99.512;2022-07-22T16:00:44;12.45;;;7.40;;
36797;SDS011;22748;8.426;99.512;2022-07-22T16:03:16;15.13;;;7.80;;
36797;SDS011;22748;8.426;99.512;2022-07-22T16:05:48;13.00;;;7.18;;
36797;SDS011;22748;8.426;99.512;2022-07-22T16:08:23;12.52;;;7.38;;
36797;SDS011;22748;8.426;99.512;2022-07-22T16:10:54;8.55;;;6.72;;
36797;SDS011;22748;8.426;99.512;2022-07-22T16:13:26;8.07;;;6.20;;
36797;SDS011;22748;8.426;99.512;2022-07-22T16:15:59;9.65;;;7.05;;
36797;SDS011;22748;8.426;99.512;2022-07-22T16:18:29;9.43;;;6.20;;
36797;SDS011;22748;8.426;99.512;2022-07-22T16:21:08;9.52;;;6.15;;
36797;SDS011;22748;8.426;99.512;2022-07-22T16:23:39;8.02;;;6.10;;
36797;SDS011;22748;8.426;99.512;2022-07-22T16:26:10;9.82;;;6.70;;
36797;SDS011;22748;8.426;99.512;2022-07-22T16:28:43;10.18;;;6.13;;
36797;SDS011;22748;8.426;99.512;2022-07-22T16:31:19;8.23;;;6.57;;
36797;SDS011;22748;8.426;99.512;2022-07-22T16:33:53;9.15;;;6.35;;
36797;SDS011;22748;8.426;99.512;2022-07-22T16:36:23;8.85;;;6.07;;
36797;SDS011;22748;8.426;99.512;2022-07-22T16:38:57;9.05;;;6.55;;
36797;SDS011;22748;8.426;99.512;2022-07-22T16:41:32;10.43;;;6.15;;
36797;SDS011;22748;8.426;99.512;2022-07-22T16:44:05;8.27;;;5.80;;
36797;SDS011;22748;8.426;99.512;2022-07-22T16:46:38;9.02;;;6.15;;
36797;SDS011;22748;8.426;99.512;2022-07-22T16:49:08;7.35;;;6.20;;
36797;SDS011;22748;8.426;99.512;2022-07-22T16:51:38;6.70;;;6.00;;
36797;SDS011;22748;8.426;99.512;2022-07-22T16:54:10;9.70;;;6.15;;
36797;SDS011;22748;8.426;99.512;2022-07-22T16:56:40;7.35;;;5.32;;
36797;SDS011;22748;8.426;99.512;2022-07-22T16:59:11;7.43;;;5.90;;
36797;SDS011;22748;8.426;99.512;2022-07-22T17:01:44;9.38;;;5.93;;
36797;SDS011;22748;8.426;99.512;2022-07-22T17:04:16;7.80;;;6.45;;
36797;SDS011;22748;8.426;99.512;2022-07-22T17:06:47;7.40;;;6.10;;
36797;SDS011;22748;8.426;99.512;2022-07-22T17:09:19;9.13;;;5.50;;
36797;SDS011;22748;8.426;99.512;2022-07-22T17:11:52;9.55;;;6.35;;
36797;SDS011;22748;8.426;99.512;2022-07-22T17:14:28;9.07;;;5.80;;
36797;SDS011;22748;8.426;99.512;2022-07-22T17:17:03;8.27;;;5.72;;
36797;SDS011;22748;8.426;99.512;2022-07-22T17:19:35;10.38;;;5.70;;
36797;SDS011;22748;8.426;99.512;2022-07-22T17:22:06;10.15;;;5.20;;
36797;SDS011;22748;8.426;99.512;2022-07-22T17:24:39;10.98;;;5.70;;
36797;SDS011;22748;8.426;99.512;2022-07-22T17:27:10;7.47;;;5.43;;
36797;SDS011;22748;8.426;99.512;2022-07-22T17:29:41;9.75;;;5.47;;
36797;SDS011;22748;8.426;99.512;2022-07-22T17:32:14;9.90;;;5.38;;
36797;SDS011;22748;8.426;99.512;2022-07-22T17:34:46;6.22;;;5.55;;
36797;SDS011;22748;8.426;99.512;2022-07-22T17:37:17;7.15;;;5.47;;
36797;SDS011;22748;8.426;99.512;2022-07-22T17:39:47;8.43;;;5.20;;
36797;SDS011;22748;8.426;99.512;2022-07-22T17:42:20;8.70;;;5.35;;
36797;SDS011;22748;8.426;99.512;2022-07-22T17:44:52;6.63;;;5.90;;
36797;SDS011;22748;8.426;99.512;2022-07-22T17:47:24;6.25;;;5.43;;
36797;SDS011;22748;8.426;99.512;2022-07-22T17:49:57;9.13;;;5.65;;
36797;SDS011;22748;8.426;99.512;2022-07-22T17:52:33;7.72;;;5.32;;
36797;SDS011;22748;8.426;99.512;2022-07-22T17:55:06;7.45;;;5.18;;
36797;SDS011;22748;8.426;99.512;2022-07-22T17:57:37;11.23;;;5.15;;
36797;SDS011;22748;8.426;99.512;2022-07-22T18:00:09;10.75;;;5.60;;
36797;SDS011;22748;8.426;99.512;2022-07-22T18:02:43;10.65;;;5.28;;
36797;SDS011;22748;8.426;99.512;2022-07-22T18:05:16;7.80;;;5.15;;
36797;SDS011;22748;8.426;99.512;2022-07-22T18:07:48;10.35;;;5.55;;
36797;SDS011;22748;8.426;99.512;2022-07-22T18:10:19;5.68;;;5.07;;
36797;SDS011;22748;8.426;99.512;2022-07-22T18:12:51;6.68;;;4.90;;
36797;SDS011;22748;8.426;99.512;2022-07-22T18:15:23;9.30;;;5.80;;
36797;SDS011;22748;8.426;99.512;2022-07-22T18:17:59;7.97;;;4.95;;
36797;SDS011;22748;8.426;99.512;2022-07-22T18:20:31;8.80;;;5.63;;
36797;SDS011;22748;8.426;99.512;2022-07-22T18:23:03;7.95;;;5.10;;
36797;SDS011;22748;8.426;99.512;2022-07-22T18:28:05;6.25;;;5.00;;
36797;SDS011;22748;8.426;99.512;2022-07-22T18:33:06;8.73;;;5.75;;
36797;SDS011;22748;8.426;99.512;2022-07-22T22:00:50;5.03;;;3.78;;
36797;SDS011;22748;8.426;99.512;2022-07-22T22:03:22;5.15;;;4.45;;
36797;SDS011;22748;8.426;99.512;2022-07-22T22:08:21;7.15;;;3.72;;
36797;SDS011;22748;8.426;99.512;2022-07-22T22:10:51;6.05;;;4.55;;
36797;SDS011;22748;8.426;99.512;2022-07-22T22:13:21;9.90;;;4.70;;
36797;SDS011;22748;8.426;99.512;2022-07-22T22:15:53;6.15;;;4.70;;
36797;SDS011;22748;8.426;99.512;2022-07-22T22:18:27;8.20;;;4.72;;
36797;SDS011;22748;8.426;99.512;2022-07-22T22:20:58;9.80;;;4.55;;
36797;SDS011;22748;8.426;99.512;2022-07-22T22:23:30;7.45;;;4.82;;
36797;SDS011;22748;8.426;99.512;2022-07-22T22:26:01;8.02;;;4.38;;
36797;SDS011;22748;8.426;99.512;2022-07-22T22:28:31;8.73;;;4.32;;
36797;SDS011;22748;8.426;99.512;2022-07-22T22:31:05;7.38;;;4.55;;
36797;SDS011;22748;8.426;99.512;2022-07-22T22:33:35;11.02;;;4.53;;
36797;SDS011;22748;8.426;99.512;2022-07-22T22:36:07;9.40;;;4.82;;
36797;SDS011;22748;8.426;99.512;2022-07-22T22:38:37;5.55;;;4.57;;
36797;SDS011;22748;8.426;99.512;2022-07-22T22:41:09;9.82;;;4.72;;
36797;SDS011;22748;8.426;99.512;2022-07-22T22:43:40;7.00;;;4.45;;
36797;SDS011;22748;8.426;99.512;2022-07-22T22:46:12;13.10;;;5.05;;
36797;SDS011;22748;8.426;99.512;2022-07-22T22:51:10;11.70;;;5.25;;
36797;SDS011;22748;8.426;99.512;2022-07-22T22:53:40;7.90;;;4.75;;
36797;SDS011;22748;8.426;99.512;2022-07-22T22:56:10;8.60;;;5.03;;
36797;SDS011;22748;8.426;99.512;2022-07-22T22:58:40;8.88;;;4.82;;
36797;SDS011;22748;8.426;99.512;2022-07-22T23:01:12;19.20;;;5.23;;
36797;SDS011;22748;8.426;99.512;2022-07-22T23:03:42;11.30;;;4.80;;
36797;SDS011;22748;8.426;99.512;2022-07-22T23:06:13;10.73;;;4.38;;
36797;SDS011;22748;8.426;99.512;2022-07-22T23:11:11;8.60;;;4.45;;
36797;SDS011;22748;8.426;99.512;2022-07-22T23:13:42;6.93;;;4.70;;
36797;SDS011;22748;8.426;99.512;2022-07-22T23:16:15;9.75;;;4.78;;
36797;SDS011;22748;8.426;99.512;2022-07-22T23:18:46;11.43;;;4.32;;
36797;SDS011;22748;8.426;99.512;2022-07-22T23:21:18;10.75;;;4.60;;
36797;SDS011;22748;8.426;99.512;2022-07-22T23:26:18;7.25;;;5.38;;
36797;SDS011;22748;8.426;99.512;2022-07-22T23:28:49;7.90;;;5.25;;
36797;SDS011;22748;8.426;99.512;2022-07-22T23:31:24;9.00;;;5.20;;
36797;SDS011;22748;8.426;99.512;2022-07-22T23:33:58;13.10;;;6.28;;
36797;SDS011;22748;8.426;99.512;2022-07-22T23:36:30;8.18;;;5.28;;
36797;SDS011;22748;8.426;99.512;2022-07-22T23:39:01;5.85;;;5.05;;
36797;SDS011;22748;8.426;99.512;2022-07-22T23:41:33;9.75;;;5.30;;
36797;SDS011;22748;8.426;99.512;2022-07-22T23:44:03;8.13;;;4.82;;